sensor_id;sensor_type;location;lat;lon;timestamp;P1;durP1;ratioP1;P2;durP2;ratioP2
13580;SDS011;6861;46.170;7.222;2023-07-31T00:01:26;2.75;;;1.42;;
13580;SDS011;6861;46.170;7.222;2023-07-31T00:03:55;2.63;;;1.70;;
13580;SDS011;6861;46.170;7.222;2023-07-31T00:06:24;1.63;;;1.30;;
13580;SDS011;6861;46.170;7.222;2023-07-31T00:08:52;2.38;;;1.52;;
13580;SDS011;6861;46.170;7.222;2023-07-31T00:11:20;3.03;;;1.67;;
13580;SDS011;6861;46.170;7.222;2023-07-31T00:13:48;4.03;;;1.50;;
13580;SDS011;6861;46.170;7.222;2023-07-31T00:16:16;3.13;;;1.65;;
13580;SDS011;6861;46.170;7.222;2023-07-31T00:18:45;3.00;;;1.77;;
13580;SDS011;6861;46.170;7.222;2023-07-31T00:21:14;3.60;;;1.70;;
13580;SDS011;6861;46.170;7.222;2023-07-31T00:23:42;2.55;;;1.63;;
13580;SDS011;6861;46.170;7.222;2023-07-31T00:26:10;2.53;;;1.58;;
13580;SDS011;6861;46.170;7.222;2023-07-31T00:28:39;2.20;;;1.52;;
13580;SDS011;6861;46.170;7.222;2023-07-31T00:31:07;3.90;;;1.63;;
13580;SDS011;6861;46.170;7.222;2023-07-31T00:33:35;2.33;;;1.63;;
13580;SDS011;6861;46.170;7.222;2023-07-31T00:36:03;2.08;;;1.70;;
13580;SDS011;6861;46.170;7.222;2023-07-31T00:38:33;2.15;;;1.73;;
13580;SDS011;6861;46.170;7.222;2023-07-31T00:41:01;2.05;;;1.52;;
13580;SDS011;6861;46.170;7.222;2023-07-31T00:43:29;2.28;;;1.65;;
13580;SDS011;6861;46.170;7.222;2023-07-31T00:45:57;2.72;;;1.50;;
13580;SDS011;6861;46.170;7.222;2023-07-31T00:48:26;2.85;;;1.70;;
13580;SDS011;6861;46.170;7.222;2023-07-31T00:50:54;3.95;;;1.75;;
13580;SDS011;6861;46.170;7.222;2023-07-31T00:53:22;5.88;;;1.95;;
13580;SDS011;6861;46.170;7.222;2023-07-31T00:55:53;3.28;;;1.80;;
13580;SDS011;6861;46.170;7.222;2023-07-31T00:58:22;2.53;;;1.67;;
13580;SDS011;6861;46.170;7.222;2023-07-31T01:00:50;2.00;;;1.70;;
13580;SDS011;6861;46.170;7.222;2023-07-31T01:03:18;2.97;;;1.67;;
13580;SDS011;6861;46.170;7.222;2023-07-31T01:05:49;2.30;;;1.70;;
13580;SDS011;6861;46.170;7.222;2023-07-31T01:08:28;1.88;;;1.60;;
13580;SDS011;6861;46.170;7.222;2023-07-31T01:11:02;3.47;;;1.95;;
13580;SDS011;6861;46.170;7.222;2023-07-31T01:13:35;2.97;;;1.50;;
13580;SDS011;6861;46.170;7.222;2023-07-31T01:16:04;2.42;;;1.60;;
13580;SDS011;6861;46.170;7.222;2023-07-31T01:18:32;2.70;;;1.65;;
13580;SDS011;6861;46.170;7.222;2023-07-31T01:21:40;4.75;;;1.90;;
13580;SDS011;6861;46.170;7.222;2023-07-31T01:24:21;3.15;;;2.00;;
13580;SDS011;6861;46.170;7.222;2023-07-31T01:26:55;3.85;;;1.90;;
13580;SDS011;6861;46.170;7.222;2023-07-31T01:29:30;3.92;;;1.73;;
13580;SDS011;6861;46.170;7.222;2023-07-31T01:32:04;2.70;;;1.55;;
13580;SDS011;6861;46.170;7.222;2023-07-31T01:34:34;2.08;;;1.80;;
13580;SDS011;6861;46.170;7.222;2023-07-31T01:37:03;3.53;;;1.98;;
13580;SDS011;6861;46.170;7.222;2023-07-31T01:39:32;2.40;;;1.80;;
13580;SDS011;6861;46.170;7.222;2023-07-31T01:42:01;2.25;;;1.70;;
13580;SDS011;6861;46.170;7.222;2023-07-31T01:44:29;2.08;;;1.73;;
13580;SDS011;6861;46.170;7.222;2023-07-31T01:46:59;3.90;;;2.03;;
13580;SDS011;6861;46.170;7.222;2023-07-31T01:49:27;2.13;;;1.80;;
13580;SDS011;6861;46.170;7.222;2023-07-31T01:51:55;2.53;;;2.10;;
13580;SDS011;6861;46.170;7.222;2023-07-31T01:54:23;2.90;;;2.20;;
13580;SDS011;6861;46.170;7.222;2023-07-31T01:56:52;4.55;;;2.03;;
13580;SDS011;6861;46.170;7.222;2023-07-31T01:59:21;3.15;;;2.08;;
13580;SDS011;6861;46.170;7.222;2023-07-31T02:01:49;2.40;;;1.83;;
13580;SDS011;6861;46.170;7.222;2023-07-31T02:04:20;3.40;;;2.10;;
13580;SDS011;6861;46.170;7.222;2023-07-31T02:06:48;3.78;;;1.80;;
13580;SDS011;6861;46.170;7.222;2023-07-31T02:09:16;5.70;;;2.13;;
13580;SDS011;6861;46.170;7.222;2023-07-31T02:11:44;2.60;;;1.98;;
13580;SDS011;6861;46.170;7.222;2023-07-31T02:14:13;1.83;;;1.58;;
13580;SDS011;6861;46.170;7.222;2023-07-31T02:16:42;4.13;;;1.77;;
13580;SDS011;6861;46.170;7.222;2023-07-31T02:19:10;6.72;;;2.22;;
13580;SDS011;6861;46.170;7.222;2023-07-31T02:21:38;2.47;;;1.85;;
13580;SDS011;6861;46.170;7.222;2023-07-31T02:24:07;3.35;;;1.80;;
13580;SDS011;6861;46.170;7.222;2023-07-31T02:26:35;2.63;;;2.00;;
13580;SDS011;6861;46.170;7.222;2023-07-31T02:29:03;3.28;;;1.88;;
13580;SDS011;6861;46.170;7.222;2023-07-31T02:31:31;5.60;;;2.00;;
13580;SDS011;6861;46.170;7.222;2023-07-31T02:34:01;3.35;;;1.80;;
13580;SDS011;6861;46.170;7.222;2023-07-31T02:36:29;2.88;;;2.10;;
13580;SDS011;6861;46.170;7.222;2023-07-31T02:38:57;2.55;;;2.15;;
13580;SDS011;6861;46.170;7.222;2023-07-31T02:41:25;3.78;;;2.17;;
13580;SDS011;6861;46.170;7.222;2023-07-31T02:43:53;3.00;;;2.00;;
13580;SDS011;6861;46.170;7.222;2023-07-31T02:46:22;4.53;;;2.10;;
13580;SDS011;6861;46.170;7.222;2023-07-31T02:48:51;3.47;;;2.03;;
13580;SDS011;6861;46.170;7.222;2023-07-31T02:51:21;3.15;;;1.92;;
13580;SDS011;6861;46.170;7.222;2023-07-31T02:53:49;2.28;;;1.80;;
13580;SDS011;6861;46.170;7.222;2023-07-31T02:56:17;2.67;;;2.00;;
13580;SDS011;6861;46.170;7.222;2023-07-31T02:58:45;5.35;;;2.15;;
13580;SDS011;6861;46.170;7.222;2023-07-31T03:01:13;4.45;;;2.08;;
13580;SDS011;6861;46.170;7.222;2023-07-31T03:03:41;3.22;;;1.83;;
13580;SDS011;6861;46.170;7.222;2023-07-31T03:06:10;2.30;;;1.80;;
13580;SDS011;6861;46.170;7.222;2023-07-31T03:08:39;5.07;;;1.92;;
13580;SDS011;6861;46.170;7.222;2023-07-31T03:11:07;2.95;;;2.10;;
13580;SDS011;6861;46.170;7.222;2023-07-31T03:13:36;6.72;;;2.03;;
13580;SDS011;6861;46.170;7.222;2023-07-31T03:16:04;3.28;;;2.03;;
13580;SDS011;6861;46.170;7.222;2023-07-31T03:18:32;3.88;;;2.40;;
13580;SDS011;6861;46.170;7.222;2023-07-31T03:21:00;3.55;;;2.00;;
13580;SDS011;6861;46.170;7.222;2023-07-31T03:23:28;2.30;;;1.83;;
13580;SDS011;6861;46.170;7.222;2023-07-31T03:25:58;2.50;;;1.70;;
13580;SDS011;6861;46.170;7.222;2023-07-31T03:28:27;2.58;;;1.95;;
13580;SDS011;6861;46.170;7.222;2023-07-31T03:30:56;3.45;;;1.70;;
13580;SDS011;6861;46.170;7.222;2023-07-31T03:33:24;4.43;;;2.10;;
13580;SDS011;6861;46.170;7.222;2023-07-31T03:35:52;2.83;;;2.03;;
13580;SDS011;6861;46.170;7.222;2023-07-31T03:38:20;3.47;;;2.10;;
13580;SDS011;6861;46.170;7.222;2023-07-31T03:40:49;4.03;;;2.10;;
13580;SDS011;6861;46.170;7.222;2023-07-31T03:43:18;3.10;;;2.05;;
13580;SDS011;6861;46.170;7.222;2023-07-31T03:45:46;3.92;;;1.83;;
13580;SDS011;6861;46.170;7.222;2023-07-31T03:48:15;2.53;;;1.90;;
13580;SDS011;6861;46.170;7.222;2023-07-31T03:50:43;3.50;;;2.03;;
13580;SDS011;6861;46.170;7.222;2023-07-31T03:53:11;3.47;;;2.28;;
13580;SDS011;6861;46.170;7.222;2023-07-31T03:55:39;4.95;;;2.20;;
13580;SDS011;6861;46.170;7.222;2023-07-31T03:58:08;2.28;;;1.65;;
13580;SDS011;6861;46.170;7.222;2023-07-31T04:00:37;3.15;;;2.10;;
13580;SDS011;6861;46.170;7.222;2023-07-31T04:03:08;3.30;;;2.10;;
13580;SDS011;6861;46.170;7.222;2023-07-31T04:05:37;5.18;;;2.28;;
13580;SDS011;6861;46.170;7.222;2023-07-31T04:08:06;3.28;;;1.63;;
13580;SDS011;6861;46.170;7.222;2023-07-31T04:10:34;3.85;;;2.10;;
13580;SDS011;6861;46.170;7.222;2023-07-31T04:13:02;2.83;;;2.00;;
13580;SDS011;6861;46.170;7.222;2023-07-31T04:15:30;6.80;;;2.20;;
13580;SDS011;6861;46.170;7.222;2023-07-31T04:18:00;2.25;;;1.70;;
13580;SDS011;6861;46.170;7.222;2023-07-31T04:20:28;2.20;;;1.63;;
13580;SDS011;6861;46.170;7.222;2023-07-31T04:22:56;2.70;;;1.95;;
13580;SDS011;6861;46.170;7.222;2023-07-31T04:25:24;3.50;;;2.03;;
13580;SDS011;6861;46.170;7.222;2023-07-31T04:27:53;2.50;;;1.83;;
13580;SDS011;6861;46.170;7.222;2023-07-31T04:30:21;3.42;;;1.98;;
13580;SDS011;6861;46.170;7.222;2023-07-31T04:32:49;2.00;;;1.65;;
13580;SDS011;6861;46.170;7.222;2023-07-31T04:35:18;2.72;;;1.80;;
13580;SDS011;6861;46.170;7.222;2023-07-31T04:37:47;3.65;;;2.05;;
13580;SDS011;6861;46.170;7.222;2023-07-31T04:40:15;3.72;;;2.10;;
13580;SDS011;6861;46.170;7.222;2023-07-31T04:42:43;4.57;;;2.17;;
13580;SDS011;6861;46.170;7.222;2023-07-31T04:45:13;4.70;;;2.10;;
13580;SDS011;6861;46.170;7.222;2023-07-31T04:47:42;2.38;;;1.88;;
13580;SDS011;6861;46.170;7.222;2023-07-31T04:50:10;2.85;;;2.25;;
13580;SDS011;6861;46.170;7.222;2023-07-31T04:52:39;2.88;;;2.10;;
13580;SDS011;6861;46.170;7.222;2023-07-31T04:55:08;3.05;;;2.10;;
13580;SDS011;6861;46.170;7.222;2023-07-31T04:57:36;3.50;;;2.17;;
13580;SDS011;6861;46.170;7.222;2023-07-31T05:00:05;2.30;;;1.98;;
13580;SDS011;6861;46.170;7.222;2023-07-31T05:02:34;3.85;;;2.10;;
13580;SDS011;6861;46.170;7.222;2023-07-31T05:05:02;3.13;;;1.98;;
13580;SDS011;6861;46.170;7.222;2023-07-31T05:07:31;4.30;;;2.20;;
13580;SDS011;6861;46.170;7.222;2023-07-31T05:10:00;5.85;;;2.15;;
13580;SDS011;6861;46.170;7.222;2023-07-31T05:12:28;3.65;;;2.30;;
13580;SDS011;6861;46.170;7.222;2023-07-31T05:14:56;3.55;;;2.25;;
13580;SDS011;6861;46.170;7.222;2023-07-31T05:17:24;2.88;;;2.20;;
13580;SDS011;6861;46.170;7.222;2023-07-31T05:19:53;6.18;;;2.30;;
13580;SDS011;6861;46.170;7.222;2023-07-31T05:22:21;6.60;;;2.70;;
13580;SDS011;6861;46.170;7.222;2023-07-31T05:24:49;4.88;;;2.60;;
13580;SDS011;6861;46.170;7.222;2023-07-31T05:27:19;4.43;;;2.25;;
13580;SDS011;6861;46.170;7.222;2023-07-31T05:29:47;2.92;;;2.20;;
13580;SDS011;6861;46.170;7.222;2023-07-31T05:32:15;4.05;;;2.28;;
13580;SDS011;6861;46.170;7.222;2023-07-31T05:34:43;7.50;;;2.30;;
13580;SDS011;6861;46.170;7.222;2023-07-31T05:37:11;5.25;;;2.63;;
13580;SDS011;6861;46.170;7.222;2023-07-31T05:39:39;4.60;;;2.33;;
13580;SDS011;6861;46.170;7.222;2023-07-31T05:42:07;3.20;;;2.08;;
13580;SDS011;6861;46.170;7.222;2023-07-31T05:44:37;4.80;;;2.53;;
13580;SDS011;6861;46.170;7.222;2023-07-31T05:47:05;3.45;;;2.17;;
13580;SDS011;6861;46.170;7.222;2023-07-31T05:49:33;3.33;;;2.05;;
13580;SDS011;6861;46.170;7.222;2023-07-31T05:52:02;4.60;;;2.35;;
13580;SDS011;6861;46.170;7.222;2023-07-31T05:54:31;5.18;;;2.40;;
13580;SDS011;6861;46.170;7.222;2023-07-31T05:57:00;4.63;;;2.38;;
13580;SDS011;6861;46.170;7.222;2023-07-31T05:59:28;4.10;;;2.40;;
13580;SDS011;6861;46.170;7.222;2023-07-31T06:02:00;4.57;;;2.40;;
13580;SDS011;6861;46.170;7.222;2023-07-31T06:04:29;4.38;;;2.50;;
13580;SDS011;6861;46.170;7.222;2023-07-31T06:06:57;5.43;;;2.60;;
13580;SDS011;6861;46.170;7.222;2023-07-31T06:09:25;4.72;;;2.40;;
13580;SDS011;6861;46.170;7.222;2023-07-31T06:11:53;5.75;;;2.47;;
13580;SDS011;6861;46.170;7.222;2023-07-31T06:14:21;5.57;;;2.50;;
13580;SDS011;6861;46.170;7.222;2023-07-31T06:16:50;6.75;;;2.88;;
13580;SDS011;6861;46.170;7.222;2023-07-31T06:19:19;5.70;;;2.70;;
13580;SDS011;6861;46.170;7.222;2023-07-31T06:21:47;4.18;;;2.60;;
13580;SDS011;6861;46.170;7.222;2023-07-31T06:24:16;5.43;;;2.40;;
13580;SDS011;6861;46.170;7.222;2023-07-31T06:26:46;6.47;;;2.60;;
13580;SDS011;6861;46.170;7.222;2023-07-31T06:29:15;5.35;;;2.47;;
13580;SDS011;6861;46.170;7.222;2023-07-31T06:31:43;3.85;;;2.25;;
13580;SDS011;6861;46.170;7.222;2023-07-31T06:34:11;4.07;;;2.22;;
13580;SDS011;6861;46.170;7.222;2023-07-31T06:36:41;5.55;;;1.98;;
13580;SDS011;6861;46.170;7.222;2023-07-31T06:39:09;3.88;;;1.92;;
13580;SDS011;6861;46.170;7.222;2023-07-31T06:41:37;5.40;;;2.28;;
13580;SDS011;6861;46.170;7.222;2023-07-31T06:44:06;3.75;;;2.17;;
13580;SDS011;6861;46.170;7.222;2023-07-31T06:46:34;2.55;;;1.77;;
13580;SDS011;6861;46.170;7.222;2023-07-31T06:49:03;3.05;;;2.05;;
13580;SDS011;6861;46.170;7.222;2023-07-31T06:51:31;3.13;;;2.00;;
13580;SDS011;6861;46.170;7.222;2023-07-31T06:54:00;3.00;;;2.50;;
13580;SDS011;6861;46.170;7.222;2023-07-31T06:56:29;4.43;;;1.90;;
13580;SDS011;6861;46.170;7.222;2023-07-31T06:58:57;4.13;;;2.15;;
13580;SDS011;6861;46.170;7.222;2023-07-31T07:01:25;4.55;;;1.98;;
13580;SDS011;6861;46.170;7.222;2023-07-31T07:03:54;4.28;;;2.00;;
13580;SDS011;6861;46.170;7.222;2023-07-31T07:06:22;4.75;;;2.40;;
13580;SDS011;6861;46.170;7.222;2023-07-31T07:08:50;2.78;;;1.98;;
13580;SDS011;6861;46.170;7.222;2023-07-31T07:11:20;3.67;;;2.40;;
13580;SDS011;6861;46.170;7.222;2023-07-31T07:13:48;4.28;;;2.20;;
13580;SDS011;6861;46.170;7.222;2023-07-31T07:16:16;2.33;;;1.70;;
13580;SDS011;6861;46.170;7.222;2023-07-31T07:18:44;3.10;;;1.88;;
13580;SDS011;6861;46.170;7.222;2023-07-31T07:21:29;3.17;;;2.10;;
13580;SDS011;6861;46.170;7.222;2023-07-31T07:23:57;4.70;;;1.80;;
13580;SDS011;6861;46.170;7.222;2023-07-31T07:26:27;3.95;;;2.28;;
13580;SDS011;6861;46.170;7.222;2023-07-31T07:28:55;2.97;;;2.00;;
13580;SDS011;6861;46.170;7.222;2023-07-31T07:31:27;4.25;;;2.30;;
13580;SDS011;6861;46.170;7.222;2023-07-31T07:33:55;4.38;;;2.20;;
13580;SDS011;6861;46.170;7.222;2023-07-31T07:36:23;4.93;;;2.10;;
13580;SDS011;6861;46.170;7.222;2023-07-31T07:38:51;9.10;;;2.70;;
13580;SDS011;6861;46.170;7.222;2023-07-31T07:41:19;8.73;;;2.63;;
13580;SDS011;6861;46.170;7.222;2023-07-31T07:43:49;6.43;;;2.92;;
13580;SDS011;6861;46.170;7.222;2023-07-31T07:46:18;4.68;;;2.63;;
13580;SDS011;6861;46.170;7.222;2023-07-31T07:48:46;4.45;;;2.42;;
13580;SDS011;6861;46.170;7.222;2023-07-31T07:51:14;7.38;;;2.60;;
13580;SDS011;6861;46.170;7.222;2023-07-31T07:53:42;5.78;;;2.85;;
13580;SDS011;6861;46.170;7.222;2023-07-31T07:56:10;5.05;;;2.50;;
13580;SDS011;6861;46.170;7.222;2023-07-31T07:58:39;5.72;;;2.47;;
13580;SDS011;6861;46.170;7.222;2023-07-31T08:01:08;4.18;;;2.15;;
13580;SDS011;6861;46.170;7.222;2023-07-31T08:03:36;3.95;;;2.30;;
13580;SDS011;6861;46.170;7.222;2023-07-31T08:06:05;4.25;;;2.50;;
13580;SDS011;6861;46.170;7.222;2023-07-31T08:08:35;4.30;;;2.50;;
13580;SDS011;6861;46.170;7.222;2023-07-31T08:11:04;4.03;;;2.22;;
13580;SDS011;6861;46.170;7.222;2023-07-31T08:13:32;4.38;;;2.40;;
13580;SDS011;6861;46.170;7.222;2023-07-31T08:16:03;4.03;;;2.30;;
13580;SDS011;6861;46.170;7.222;2023-07-31T08:18:33;4.85;;;2.30;;
13580;SDS011;6861;46.170;7.222;2023-07-31T08:21:01;3.17;;;2.40;;
13580;SDS011;6861;46.170;7.222;2023-07-31T08:23:31;5.22;;;2.08;;
13580;SDS011;6861;46.170;7.222;2023-07-31T08:25:59;4.18;;;2.22;;
13580;SDS011;6861;46.170;7.222;2023-07-31T08:28:27;3.33;;;1.85;;
13580;SDS011;6861;46.170;7.222;2023-07-31T08:30:55;4.60;;;2.45;;
13580;SDS011;6861;46.170;7.222;2023-07-31T08:33:23;4.70;;;2.17;;
13580;SDS011;6861;46.170;7.222;2023-07-31T08:35:53;3.42;;;2.20;;
13580;SDS011;6861;46.170;7.222;2023-07-31T08:38:21;3.53;;;2.28;;
13580;SDS011;6861;46.170;7.222;2023-07-31T08:40:52;2.67;;;2.13;;
13580;SDS011;6861;46.170;7.222;2023-07-31T08:43:20;3.85;;;2.42;;
13580;SDS011;6861;46.170;7.222;2023-07-31T08:45:50;3.38;;;2.20;;
13580;SDS011;6861;46.170;7.222;2023-07-31T08:48:19;3.08;;;2.00;;
13580;SDS011;6861;46.170;7.222;2023-07-31T08:50:48;3.00;;;2.40;;
13580;SDS011;6861;46.170;7.222;2023-07-31T08:53:18;3.67;;;2.50;;
13580;SDS011;6861;46.170;7.222;2023-07-31T08:55:47;3.00;;;2.10;;
13580;SDS011;6861;46.170;7.222;2023-07-31T08:58:17;4.30;;;2.33;;
13580;SDS011;6861;46.170;7.222;2023-07-31T09:00:46;3.35;;;2.08;;
13580;SDS011;6861;46.170;7.222;2023-07-31T09:03:18;3.42;;;2.20;;
13580;SDS011;6861;46.170;7.222;2023-07-31T09:05:47;3.17;;;2.28;;
13580;SDS011;6861;46.170;7.222;2023-07-31T09:08:17;4.68;;;2.53;;
13580;SDS011;6861;46.170;7.222;2023-07-31T09:10:48;3.75;;;2.20;;
13580;SDS011;6861;46.170;7.222;2023-07-31T09:13:17;3.65;;;2.17;;
13580;SDS011;6861;46.170;7.222;2023-07-31T09:15:46;2.60;;;2.00;;
13580;SDS011;6861;46.170;7.222;2023-07-31T09:18:14;3.65;;;1.98;;
13580;SDS011;6861;46.170;7.222;2023-07-31T09:20:45;5.57;;;2.05;;
13580;SDS011;6861;46.170;7.222;2023-07-31T09:23:29;4.00;;;2.17;;
13580;SDS011;6861;46.170;7.222;2023-07-31T09:26:08;5.38;;;2.00;;
13580;SDS011;6861;46.170;7.222;2023-07-31T09:28:36;2.85;;;2.15;;
13580;SDS011;6861;46.170;7.222;2023-07-31T09:31:05;3.22;;;2.00;;
13580;SDS011;6861;46.170;7.222;2023-07-31T09:33:33;3.38;;;2.30;;
13580;SDS011;6861;46.170;7.222;2023-07-31T09:36:01;2.70;;;2.05;;
13580;SDS011;6861;46.170;7.222;2023-07-31T09:38:33;3.85;;;2.00;;
13580;SDS011;6861;46.170;7.222;2023-07-31T09:41:02;2.80;;;2.10;;
13580;SDS011;6861;46.170;7.222;2023-07-31T09:43:30;3.22;;;1.90;;
13580;SDS011;6861;46.170;7.222;2023-07-31T09:45:58;3.72;;;2.10;;
13580;SDS011;6861;46.170;7.222;2023-07-31T09:48:27;1.85;;;1.70;;
13580;SDS011;6861;46.170;7.222;2023-07-31T09:50:56;5.25;;;2.20;;
13580;SDS011;6861;46.170;7.222;2023-07-31T09:53:32;3.05;;;2.08;;
13580;SDS011;6861;46.170;7.222;2023-07-31T09:56:01;2.90;;;2.00;;
13580;SDS011;6861;46.170;7.222;2023-07-31T09:58:30;3.03;;;2.10;;
13580;SDS011;6861;46.170;7.222;2023-07-31T10:01:02;2.35;;;1.92;;
13580;SDS011;6861;46.170;7.222;2023-07-31T10:03:31;2.03;;;1.83;;
13580;SDS011;6861;46.170;7.222;2023-07-31T10:06:00;3.50;;;2.03;;
13580;SDS011;6861;46.170;7.222;2023-07-31T10:08:30;2.95;;;1.80;;
13580;SDS011;6861;46.170;7.222;2023-07-31T10:11:02;3.25;;;1.75;;
13580;SDS011;6861;46.170;7.222;2023-07-31T10:13:32;3.30;;;2.00;;
13580;SDS011;6861;46.170;7.222;2023-07-31T10:16:01;4.13;;;2.00;;
13580;SDS011;6861;46.170;7.222;2023-07-31T10:18:30;3.65;;;2.35;;
13580;SDS011;6861;46.170;7.222;2023-07-31T10:20:59;3.25;;;1.90;;
13580;SDS011;6861;46.170;7.222;2023-07-31T10:23:28;3.22;;;2.03;;
13580;SDS011;6861;46.170;7.222;2023-07-31T10:25:58;2.83;;;2.03;;
13580;SDS011;6861;46.170;7.222;2023-07-31T10:28:28;2.20;;;1.80;;
13580;SDS011;6861;46.170;7.222;2023-07-31T10:30:57;2.33;;;2.10;;
13580;SDS011;6861;46.170;7.222;2023-07-31T10:33:25;5.95;;;2.20;;
13580;SDS011;6861;46.170;7.222;2023-07-31T10:38:41;2.00;;;1.65;;
13580;SDS011;6861;46.170;7.222;2023-07-31T10:41:11;2.08;;;1.88;;
13580;SDS011;6861;46.170;7.222;2023-07-31T10:43:39;2.58;;;1.80;;
13580;SDS011;6861;46.170;7.222;2023-07-31T10:46:08;2.45;;;2.05;;
13580;SDS011;6861;46.170;7.222;2023-07-31T10:48:37;3.50;;;1.88;;
13580;SDS011;6861;46.170;7.222;2023-07-31T10:51:08;2.65;;;1.90;;
13580;SDS011;6861;46.170;7.222;2023-07-31T10:53:38;4.75;;;2.03;;
13580;SDS011;6861;46.170;7.222;2023-07-31T10:56:07;3.38;;;1.90;;
13580;SDS011;6861;46.170;7.222;2023-07-31T10:58:41;2.60;;;2.10;;
13580;SDS011;6861;46.170;7.222;2023-07-31T11:01:12;3.95;;;1.92;;
13580;SDS011;6861;46.170;7.222;2023-07-31T11:03:41;4.05;;;2.10;;
13580;SDS011;6861;46.170;7.222;2023-07-31T11:06:10;3.92;;;2.20;;
13580;SDS011;6861;46.170;7.222;2023-07-31T11:08:41;2.47;;;2.10;;
13580;SDS011;6861;46.170;7.222;2023-07-31T11:11:11;2.72;;;1.75;;
13580;SDS011;6861;46.170;7.222;2023-07-31T11:13:44;2.03;;;1.83;;
13580;SDS011;6861;46.170;7.222;2023-07-31T11:16:16;3.35;;;1.80;;
13580;SDS011;6861;46.170;7.222;2023-07-31T11:18:46;4.05;;;2.05;;
13580;SDS011;6861;46.170;7.222;2023-07-31T11:21:15;3.20;;;2.28;;
13580;SDS011;6861;46.170;7.222;2023-07-31T11:23:45;5.18;;;1.95;;
13580;SDS011;6861;46.170;7.222;2023-07-31T11:26:14;2.70;;;2.10;;
13580;SDS011;6861;46.170;7.222;2023-07-31T11:28:45;3.75;;;1.90;;
13580;SDS011;6861;46.170;7.222;2023-07-31T11:31:14;3.03;;;1.85;;
13580;SDS011;6861;46.170;7.222;2023-07-31T11:33:43;3.33;;;2.03;;
13580;SDS011;6861;46.170;7.222;2023-07-31T11:36:14;2.25;;;2.00;;
13580;SDS011;6861;46.170;7.222;2023-07-31T11:38:43;2.83;;;1.92;;
13580;SDS011;6861;46.170;7.222;2023-07-31T11:41:13;3.08;;;1.60;;
13580;SDS011;6861;46.170;7.222;2023-07-31T11:43:42;2.95;;;1.90;;
13580;SDS011;6861;46.170;7.222;2023-07-31T11:46:12;3.40;;;2.03;;
13580;SDS011;6861;46.170;7.222;2023-07-31T11:48:42;2.63;;;1.90;;
13580;SDS011;6861;46.170;7.222;2023-07-31T11:51:10;2.47;;;1.80;;
13580;SDS011;6861;46.170;7.222;2023-07-31T11:53:41;3.72;;;2.30;;
13580;SDS011;6861;46.170;7.222;2023-07-31T11:56:13;2.95;;;2.10;;
13580;SDS011;6861;46.170;7.222;2023-07-31T11:58:43;2.70;;;2.03;;
13580;SDS011;6861;46.170;7.222;2023-07-31T12:01:14;2.35;;;1.80;;
13580;SDS011;6861;46.170;7.222;2023-07-31T12:03:46;2.97;;;1.92;;
13580;SDS011;6861;46.170;7.222;2023-07-31T12:06:15;3.05;;;2.03;;
13580;SDS011;6861;46.170;7.222;2023-07-31T12:08:43;4.00;;;1.98;;
13580;SDS011;6861;46.170;7.222;2023-07-31T12:11:11;2.35;;;1.98;;
13580;SDS011;6861;46.170;7.222;2023-07-31T12:13:41;6.53;;;2.00;;
13580;SDS011;6861;46.170;7.222;2023-07-31T12:16:09;1.98;;;1.70;;
13580;SDS011;6861;46.170;7.222;2023-07-31T12:18:39;1.98;;;1.67;;
13580;SDS011;6861;46.170;7.222;2023-07-31T12:21:08;2.35;;;1.90;;
13580;SDS011;6861;46.170;7.222;2023-07-31T12:23:38;3.67;;;1.90;;
13580;SDS011;6861;46.170;7.222;2023-07-31T12:26:10;3.20;;;1.83;;
13580;SDS011;6861;46.170;7.222;2023-07-31T12:28:40;2.47;;;1.67;;
13580;SDS011;6861;46.170;7.222;2023-07-31T12:31:10;3.75;;;1.73;;
13580;SDS011;6861;46.170;7.222;2023-07-31T12:33:40;2.60;;;1.73;;
13580;SDS011;6861;46.170;7.222;2023-07-31T12:36:09;2.55;;;2.00;;
13580;SDS011;6861;46.170;7.222;2023-07-31T12:38:39;2.30;;;1.65;;
13580;SDS011;6861;46.170;7.222;2023-07-31T12:41:08;3.33;;;1.75;;
13580;SDS011;6861;46.170;7.222;2023-07-31T12:43:37;2.78;;;1.67;;
13580;SDS011;6861;46.170;7.222;2023-07-31T12:46:06;3.47;;;1.60;;
13580;SDS011;6861;46.170;7.222;2023-07-31T12:48:36;3.30;;;1.60;;
13580;SDS011;6861;46.170;7.222;2023-07-31T12:51:06;3.22;;;1.77;;
13580;SDS011;6861;46.170;7.222;2023-07-31T12:53:34;2.30;;;1.75;;
13580;SDS011;6861;46.170;7.222;2023-07-31T12:56:03;2.25;;;1.60;;
13580;SDS011;6861;46.170;7.222;2023-07-31T12:58:31;2.08;;;1.50;;
13580;SDS011;6861;46.170;7.222;2023-07-31T13:00:59;2.33;;;1.60;;
13580;SDS011;6861;46.170;7.222;2023-07-31T13:03:28;2.30;;;1.67;;
13580;SDS011;6861;46.170;7.222;2023-07-31T13:05:57;3.90;;;1.85;;
13580;SDS011;6861;46.170;7.222;2023-07-31T13:08:26;2.25;;;1.50;;
13580;SDS011;6861;46.170;7.222;2023-07-31T13:10:55;3.92;;;1.85;;
13580;SDS011;6861;46.170;7.222;2023-07-31T13:13:23;3.35;;;1.60;;
13580;SDS011;6861;46.170;7.222;2023-07-31T13:15:51;3.15;;;1.65;;
13580;SDS011;6861;46.170;7.222;2023-07-31T13:18:19;5.60;;;1.88;;
13580;SDS011;6861;46.170;7.222;2023-07-31T13:20:48;4.20;;;1.65;;
13580;SDS011;6861;46.170;7.222;2023-07-31T13:23:16;2.58;;;1.60;;
13580;SDS011;6861;46.170;7.222;2023-07-31T13:25:45;2.22;;;1.40;;
13580;SDS011;6861;46.170;7.222;2023-07-31T13:28:13;2.80;;;1.60;;
13580;SDS011;6861;46.170;7.222;2023-07-31T13:30:42;3.45;;;1.70;;
13580;SDS011;6861;46.170;7.222;2023-07-31T13:33:10;2.42;;;1.70;;
13580;SDS011;6861;46.170;7.222;2023-07-31T13:35:58;4.40;;;1.50;;
13580;SDS011;6861;46.170;7.222;2023-07-31T13:38:26;3.63;;;1.73;;
13580;SDS011;6861;46.170;7.222;2023-07-31T13:40:56;2.83;;;1.70;;
13580;SDS011;6861;46.170;7.222;2023-07-31T13:43:24;3.13;;;1.60;;
13580;SDS011;6861;46.170;7.222;2023-07-31T13:45:52;3.67;;;1.83;;
13580;SDS011;6861;46.170;7.222;2023-07-31T13:48:20;3.22;;;1.80;;
13580;SDS011;6861;46.170;7.222;2023-07-31T13:50:49;4.75;;;1.88;;
13580;SDS011;6861;46.170;7.222;2023-07-31T13:53:17;3.17;;;1.60;;
13580;SDS011;6861;46.170;7.222;2023-07-31T13:55:45;2.10;;;1.60;;
13580;SDS011;6861;46.170;7.222;2023-07-31T13:58:17;3.03;;;1.50;;
13580;SDS011;6861;46.170;7.222;2023-07-31T14:00:45;4.25;;;1.67;;
13580;SDS011;6861;46.170;7.222;2023-07-31T14:03:13;2.60;;;1.58;;
13580;SDS011;6861;46.170;7.222;2023-07-31T14:05:42;3.78;;;1.90;;
13580;SDS011;6861;46.170;7.222;2023-07-31T14:08:10;3.13;;;1.90;;
13580;SDS011;6861;46.170;7.222;2023-07-31T14:10:38;2.90;;;1.80;;
13580;SDS011;6861;46.170;7.222;2023-07-31T14:13:06;3.03;;;1.70;;
13580;SDS011;6861;46.170;7.222;2023-07-31T14:15:36;2.80;;;1.63;;
13580;SDS011;6861;46.170;7.222;2023-07-31T14:18:04;2.33;;;1.60;;
13580;SDS011;6861;46.170;7.222;2023-07-31T14:20:32;2.50;;;1.40;;
13580;SDS011;6861;46.170;7.222;2023-07-31T14:23:01;1.92;;;1.60;;
13580;SDS011;6861;46.170;7.222;2023-07-31T14:25:29;2.30;;;1.63;;
13580;SDS011;6861;46.170;7.222;2023-07-31T14:27:57;3.15;;;1.95;;
13580;SDS011;6861;46.170;7.222;2023-07-31T14:30:26;3.53;;;1.83;;
13580;SDS011;6861;46.170;7.222;2023-07-31T14:32:55;2.63;;;1.50;;
13580;SDS011;6861;46.170;7.222;2023-07-31T14:35:24;2.05;;;1.80;;
13580;SDS011;6861;46.170;7.222;2023-07-31T14:37:52;2.83;;;1.70;;
13580;SDS011;6861;46.170;7.222;2023-07-31T14:40:20;2.33;;;1.73;;
13580;SDS011;6861;46.170;7.222;2023-07-31T14:42:48;2.38;;;1.63;;
13580;SDS011;6861;46.170;7.222;2023-07-31T14:45:16;2.58;;;1.80;;
13580;SDS011;6861;46.170;7.222;2023-07-31T14:47:45;3.08;;;1.80;;
13580;SDS011;6861;46.170;7.222;2023-07-31T14:50:15;4.78;;;2.35;;
13580;SDS011;6861;46.170;7.222;2023-07-31T14:52:46;2.40;;;1.77;;
13580;SDS011;6861;46.170;7.222;2023-07-31T14:55:15;2.85;;;1.90;;
13580;SDS011;6861;46.170;7.222;2023-07-31T14:57:43;2.92;;;1.92;;
13580;SDS011;6861;46.170;7.222;2023-07-31T15:00:12;2.45;;;1.83;;
13580;SDS011;6861;46.170;7.222;2023-07-31T15:02:41;2.95;;;1.88;;
13580;SDS011;6861;46.170;7.222;2023-07-31T15:05:09;3.15;;;1.60;;
13580;SDS011;6861;46.170;7.222;2023-07-31T15:07:38;3.45;;;1.90;;
13580;SDS011;6861;46.170;7.222;2023-07-31T15:10:07;5.07;;;1.88;;
13580;SDS011;6861;46.170;7.222;2023-07-31T15:12:35;1.88;;;1.45;;
13580;SDS011;6861;46.170;7.222;2023-07-31T15:15:05;3.70;;;1.73;;